Time;durP1;ratioP1;P1;durP2;ratioP2;P2;SDS_P1;SDS_P2;PMS_P1;PMS_P2;Temp;Humidity;BMP_temperature;BMP_pressure;BME280_temperature;BME280_humidity;BME280_pressure;Samples;Min_cycle;Max_cycle;Signal;HPM_P1;HPM_P2
2023/08/11 00:06:20;;;;;;;6.7;3.6;;;;;;;11.51;87.19;;;;;
2023/08/11 00:16:20;;;;;;;7.9;3.9;;;;;;;11.61;86.84;;;;;
2023/08/11 00:26:20;;;;;;;7.9;3.9;;;;;;;11.54;86.16;;;;;
2023/08/11 00:37:20;;;;;;;7.9;3.9;;;;;;;11.42;84.8;;;;;
2023/08/11 00:48:20;;;;;;;8.3;4;;;;;;;11.24;84.69;;;;;
2023/08/11 00:58:20;;;;;;;8.3;4;;;;;;;11.02;85.08;;;;;
2023/08/11 01:09:20;;;;;;;8.3;4;;;;;;;11.06;85.8;;;;;
2023/08/11 01:19:20;;;;;;;7.1;3.4;;;;;;;11.02;85.58;;;;;
2023/08/11 01:30:20;;;;;;;7.1;3.4;;;;;;;11.05;86.12;;;;;
2023/08/11 01:40:21;;;;;;;7.1;3.4;;;;;;;11.02;85.28;;;;;
2023/08/11 01:50:20;;;;;;;6.9;3.2;;;;;;;10.87;84.88;;;;;
2023/08/11 02:01:20;;;;;;;6.9;3.2;;;;;;;10.77;84.83;;;;;
2023/08/11 02:11:20;;;;;;;6.9;3.2;;;;;;;10.61;84.38;;;;;
2023/08/11 02:21:21;;;;;;;6.1;3.6;;;;;;;10.44;84.8;;;;;
2023/08/11 02:31:20;;;;;;;6.1;3.6;;;;;;;10.17;86.04;;;;;
2023/08/11 02:41:20;;;;;;;6.1;3.6;;;;;;;9.91;87.87;;;;;
2023/08/11 02:52:20;;;;;;;6.1;2.8;;;;;;;9.92;86.9;;;;;
2023/08/11 03:02:20;;;;;;;6.1;2.8;;;;;;;9.82;86.89;;;;;
2023/08/11 03:12:21;;;;;;;6.1;2.8;;;;;;;9.73;86.62;;;;;
2023/08/11 03:22:20;;;;;;;5.6;2.8;;;;;;;9.7;86.7;;;;;
2023/08/11 03:33:20;;;;;;;5.6;2.8;;;;;;;9.69;86.7;;;;;
2023/08/11 03:43:24;;;;;;;6.9;3.1;;;;;;;9.8;86.89;;;;;
2023/08/11 03:54:24;;;;;;;6.9;3.1;;;;;;;9.89;86.86;;;;;
2023/08/11 04:05:24;;;;;;;6.9;3.1;;;;;;;10.05;87.41;;;;;
2023/08/11 04:15:24;;;;;;;5.4;3.1;;;;;;;10.31;87.49;;;;;
2023/08/11 04:25:24;;;;;;;5.4;3.1;;;;;;;10.53;87.17;;;;;
2023/08/11 04:35:24;;;;;;;5.4;3.1;;;;;;;10.9;87.18;;;;;
2023/08/11 04:46:24;;;;;;;6.6;3.8;;;;;;;11.34;86.91;;;;;
2023/08/11 04:57:24;;;;;;;6.6;3.8;;;;;;;11.79;87;;;;;
2023/08/11 05:08:23;;;;;;;6.6;3.8;;;;;;;12.28;86;;;;;
2023/08/11 05:18:23;;;;;;;7.6;4.9;;;;;;;12.49;84.99;;;;;
2023/08/11 05:29:23;;;;;;;7.6;4.9;;;;;;;12.91;84.54;;;;;
2023/08/11 05:40:23;;;;;;;7.6;4.9;;;;;;;13.23;81.87;;;;;
2023/08/11 05:50:23;;;;;;;7.2;4.6;;;;;;;13.59;81.75;;;;;
2023/08/11 06:00:24;;;;;;;7.2;4.6;;;;;;;13.89;78.83;;;;;
2023/08/11 06:11:23;;;;;;;7.2;4.6;;;;;;;14.38;78.94;;;;;
2023/08/11 06:21:23;;;;;;;12.3;8.1;;;;;;;14.81;78.61;;;;;
2023/08/11 06:31:23;;;;;;;12.3;8.1;;;;;;;15.29;76.65;;;;;
2023/08/11 06:42:23;;;;;;;9.4;6.3;;;;;;;15.74;75.58;;;;;
2023/08/11 06:52:24;;;;;;;9.4;6.3;;;;;;;16.4;74.85;;;;;
2023/08/11 07:03:23;;;;;;;9.4;6.3;;;;;;;16.75;73.3;;;;;
2023/08/11 07:14:23;;;;;;;7.7;4.8;;;;;;;17.36;70.38;;;;;
2023/08/11 07:24:23;;;;;;;7.7;4.8;;;;;;;17.78;69.2;;;;;
2023/08/11 07:34:24;;;;;;;7.7;4.8;;;;;;;18.05;70.73;;;;;
2023/08/11 07:45:23;;;;;;;7.8;5.4;;;;;;;18.66;67.28;;;;;
2023/08/11 07:55:23;;;;;;;7.8;5.4;;;;;;;19.01;66.58;;;;;
2023/08/11 08:05:23;;;;;;;7.8;5.4;;;;;;;19.53;66.17;;;;;
2023/08/11 08:15:24;;;;;;;8.7;6.1;;;;;;;19.72;62.68;;;;;
2023/08/11 08:26:24;;;;;;;8.7;6.1;;;;;;;20.14;60.39;;;;;
2023/08/11 08:37:24;;;;;;;8.7;6.1;;;;;;;20.54;57.5;;;;;
2023/08/11 08:48:23;;;;;;;11.9;6.5;;;;;;;20.61;52.16;;;;;
2023/08/11 08:58:23;;;;;;;11.9;6.5;;;;;;;20.85;53.9;;;;;
2023/08/11 09:08:23;;;;;;;11.9;6.5;;;;;;;21.13;50.53;;;;;
2023/08/11 09:18:24;;;;;;;7.2;3.9;;;;;;;21.21;49.76;;;;;
2023/08/11 09:29:24;;;;;;;7.2;3.9;;;;;;;21.6;42.75;;;;;
2023/08/11 09:39:24;;;;;;;7.2;3.9;;;;;;;21.82;47.12;;;;;
2023/08/11 09:49:24;;;;;;;5.2;2.4;;;;;;;22.22;43.97;;;;;
2023/08/11 10:00:25;;;;;;;5.2;2.4;;;;;;;22.39;45.41;;;;;
2023/08/11 10:10:24;;;;;;;5.2;2.4;;;;;;;22.49;43.94;;;;;
2023/08/11 10:21:24;;;;;;;3.9;2.1;;;;;;;22.55;45.92;;;;;
2023/08/11 10:32:24;;;;;;;3.9;2.1;;;;;;;22.76;45.96;;;;;
2023/08/11 10:42:24;;;;;;;4.9;2.2;;;;;;;22.91;42.82;;;;;
2023/08/11 10:52:24;;;;;;;4.9;2.2;;;;;;;23.23;42.83;;;;;
2023/08/11 11:02:24;;;;;;;4.9;2.2;;;;;;;23.11;39.48;;;;;
2023/08/11 11:13:24;;;;;;;3.5;1.7;;;;;;;23.47;39.31;;;;;
2023/08/11 11:23:24;;;;;;;3.5;1.7;;;;;;;23.92;38.31;;;;;
2023/08/11 11:34:24;;;;;;;3.5;1.7;;;;;;;23.97;37.51;;;;;
2023/08/11 11:45:24;;;;;;;3.7;1.6;;;;;;;24.24;38.84;;;;;
2023/08/11 11:55:24;;;;;;;3.7;1.6;;;;;;;24.24;35.16;;;;;
2023/08/11 12:05:24;;;;;;;3.7;1.6;;;;;;;24.4;36.81;;;;;
2023/08/11 12:16:24;;;;;;;4.3;2;;;;;;;24.54;33.35;;;;;
2023/08/11 12:27:24;;;;;;;4.3;2;;;;;;;24.89;34.57;;;;;
2023/08/11 12:38:24;;;;;;;4.3;2;;;;;;;24.94;33.55;;;;;
2023/08/11 12:48:24;;;;;;;3;1.5;;;;;;;25.1;34.3;;;;;
2023/08/11 12:58:24;;;;;;;3;1.5;;;;;;;25.03;33.88;;;;;
2023/08/11 13:09:24;;;;;;;3;1.5;;;;;;;25.4;34.05;;;;;
2023/08/11 13:19:24;;;;;;;3.5;1.5;;;;;;;25.87;35.21;;;;;
2023/08/11 13:40:48;;;;;;;;;;;;;;;;;;;;;
2023/08/11 13:50:47;;;;;;;3.9;1.6;;;;;;;26.68;32.86;;;;;
2023/08/11 14:00:47;;;;;;;3.9;1.6;;;;;;;26.02;32.86;;;;;
2023/08/11 14:11:48;;;;;;;3.9;1.6;;;;;;;26.15;34.96;;;;;
2023/08/11 14:34:43;;;;;;;4.7;2.2;;;;;;;26.05;36;;;;;
2023/08/11 14:44:43;;;;;;;6.2;2.2;;;;;;;26.55;34.34;;;;;
2023/08/11 14:54:43;;;;;;;6.2;2.2;;;;;;;26.93;33.42;;;;;
2023/08/11 15:04:43;;;;;;;6.2;2.2;;;;;;;27.14;37.57;;;;;
2023/08/11 15:15:43;;;;;;;5;2;;;;;;;27.82;33.22;;;;;
2023/08/11 15:26:43;;;;;;;5;2;;;;;;;30.32;28.29;;;;;
2023/08/11 15:37:43;;;;;;;5;2;;;;;;;31.86;26.36;;;;;
2023/08/11 15:48:43;;;;;;;4.6;1.9;;;;;;;32.52;25.08;;;;;
2023/08/11 15:58:43;;;;;;;4.6;1.9;;;;;;;32.82;25.65;;;;;
2023/08/11 16:09:43;;;;;;;4.6;1.9;;;;;;;34.24;25.98;;;;;
2023/08/11 16:20:43;;;;;;;4.2;1.4;;;;;;;31.94;27.28;;;;;
2023/08/11 16:31:43;;;;;;;4.2;1.4;;;;;;;29.02;32;;;;;
2023/08/11 16:41:43;;;;;;;4.2;1.4;;;;;;;27.33;33.66;;;;;
2023/08/11 16:52:43;;;;;;;4;1.7;;;;;;;26.02;37.8;;;;;
2023/08/11 17:03:43;;;;;;;4;1.7;;;;;;;25.09;40.85;;;;;
2023/08/11 17:13:46;;;;;;;4.1;2;;;;;;;24.35;43.24;;;;;
2023/08/11 17:24:43;;;;;;;4.1;2;;;;;;;23.3;47.84;;;;;
2023/08/11 17:35:43;;;;;;;4.1;2;;;;;;;22.76;49.09;;;;;
2023/08/11 17:46:43;;;;;;;5.7;2.4;;;;;;;21.71;49.7;;;;;
2023/08/11 17:56:43;;;;;;;5.7;2.4;;;;;;;20.92;52.39;;;;;
2023/08/11 18:06:43;;;;;;;5.7;2.4;;;;;;;19.95;57.59;;;;;
2023/08/11 18:17:43;;;;;;;12.5;5.6;;;;;;;19.38;60.27;;;;;
2023/08/11 18:27:43;;;;;;;12.5;5.6;;;;;;;19.11;61.76;;;;;
2023/08/11 18:38:44;;;;;;;12.5;5.6;;;;;;;18.76;62.96;;;;;
2023/08/11 18:49:43;;;;;;;10.7;5.9;;;;;;;18.24;61.96;;;;;
2023/08/11 18:59:43;;;;;;;10.7;5.9;;;;;;;17.59;66.14;;;;;
2023/08/11 19:10:43;;;;;;;10.7;5.9;;;;;;;17.22;64.16;;;;;
2023/08/11 19:20:43;;;;;;;17.4;8.5;;;;;;;16.94;65.14;;;;;
2023/08/11 19:31:43;;;;;;;17.4;8.5;;;;;;;16.72;65.79;;;;;
2023/08/11 19:41:43;;;;;;;17.4;8.5;;;;;;;16.58;65.07;;;;;
2023/08/11 19:52:43;;;;;;;19.6;14.4;;;;;;;16.51;65.99;;;;;
2023/08/11 20:02:43;;;;;;;19.6;14.4;;;;;;;16.31;66.3;;;;;
2023/08/11 20:13:43;;;;;;;11.8;7.9;;;;;;;16.15;67.06;;;;;
2023/08/11 20:23:43;;;;;;;11.8;7.9;;;;;;;16.1;67.75;;;;;
2023/08/11 20:34:43;;;;;;;11.8;7.9;;;;;;;16.16;69.22;;;;;
2023/08/11 20:45:44;;;;;;;20;13.8;;;;;;;16.06;70.07;;;;;
2023/08/11 20:55:43;;;;;;;20;13.8;;;;;;;15.95;71.34;;;;;
2023/08/11 21:05:43;;;;;;;20;13.8;;;;;;;15.85;72.49;;;;;
2023/08/11 21:16:44;;;;;;;15.1;9.5;;;;;;;15.76;72.66;;;;;
2023/08/11 21:26:43;;;;;;;15.1;9.5;;;;;;;15.67;74.33;;;;;
2023/08/11 21:36:43;;;;;;;15.1;9.5;;;;;;;15.44;76.44;;;;;
2023/08/11 21:46:43;;;;;;;13.5;9.2;;;;;;;15.07;80.38;;;;;
2023/08/11 21:57:43;;;;;;;13.5;9.2;;;;;;;15.13;77.89;;;;;
2023/08/11 22:08:43;;;;;;;13.5;9.2;;;;;;;15.15;78.35;;;;;
2023/08/11 22:19:46;;;;;;;14.5;8.5;;;;;;;15.15;78.89;;;;;
2023/08/11 22:29:48;;;;;;;14.5;8.5;;;;;;;15.07;81.67;;;;;
2023/08/11 22:40:43;;;;;;;14.5;8.5;;;;;;;15.13;79.7;;;;;
2023/08/11 22:50:43;;;;;;;10.3;6.6;;;;;;;15.17;78.68;;;;;
2023/08/11 23:00:43;;;;;;;10.3;6.6;;;;;;;15.04;78.58;;;;;
2023/08/11 23:10:43;;;;;;;10.3;6.6;;;;;;;14.94;79.01;;;;;
2023/08/11 23:21:43;;;;;;;11.9;7.6;;;;;;;14.66;81.24;;;;;
2023/08/11 23:32:43;;;;;;;11.9;7.6;;;;;;;14.46;81.09;;;;;
2023/08/11 23:42:43;;;;;;;11.9;7.6;;;;;;;14.3;81.08;;;;;
2023/08/11 23:53:43;;;;;;;9.5;7.3;;;;;;;14.13;81.09;;;;;
